Maimiti — PBIJ — position and weather

sailwx.info

Track history (hours):
 
Tides and Currents Weather Stations Pressure Air Temp Water Temp Dewpoint Dewpoint Depression Visibility Wind Speed Wind Dir Waves Ship Positions

Maimiti

Last reported at 2014-Sep-17 14:33 UTC. Time now 2014-Sep-18 09:43 UTC.
Position N 53°58' W 005°54'.

Length 87 m; draft 4.5 m.

Type: Cargo ship. MMSI: 244312000.

Date/timePositionNaut miles runAvg speedWind from/ knotsBaromVisibWave heightAir tempDewpointWater temp
2014-Sep-17 14:33N 53°58' W 005°54'8 6.9
2014-Sep-17 13:23N 54°02' W 006°06'1 1.7
2014-Sep-17 12:33N 54°02' W 006°08'0 0.0
2014-Sep-17 11:33N 54°02' W 006°08'0 0.0
2014-Sep-17 10:33N 54°02' W 006°08'0 0.0
2014-Sep-17 09:33N 54°02' W 006°08'0 0.0
2014-Sep-17 08:33N 54°02' W 006°08'0 0.0
2014-Sep-17 07:33N 54°02' W 006°08'0 0.0
2014-Sep-17 06:33N 54°02' W 006°08'0 0.0
2014-Sep-17 05:32N 54°02' W 006°08'0 0.0
2014-Sep-17 04:31N 54°02' W 006°08'0 0.0
2014-Sep-17 03:33N 54°02' W 006°08'0 0.0
2014-Sep-17 02:33N 54°02' W 006°08'0 0.0
2014-Sep-17 01:33N 54°02' W 006°08'0 0.0
2014-Sep-17 00:33N 54°02' W 006°08'0 0.0
2014-Sep-16 23:33N 54°02' W 006°08'0 0.0
2014-Sep-16 22:32N 54°02' W 006°08'0 0.0
2014-Sep-16 21:33N 54°02' W 006°08'0 0.0
2014-Sep-16 20:33N 54°02' W 006°08'28 8.5
2014-Sep-16 17:19N 54°16' W 005°28'811.1
2014-Sep-16 16:33N 54°24' W 005°21'1111.3
2014-Sep-16 15:33N 54°35' W 005°23'1212.0
2014-Sep-16 14:33N 54°46' W 005°30'3712.2
2014-Sep-16 11:33N 55°18' W 006°03'1111.1
2014-Sep-16 10:33N 55°23' W 006°20'1110.6
2014-Sep-16 09:33N 55°31' W 006°33'10 9.8
2014-Sep-16 08:33N 55°39' W 006°42'10 9.3
2014-Sep-16 07:29N 55°48' W 006°52'150 9.9
2014-Sep-15 16:17N 58°13' W 005°44'54 9.4
2014-Sep-15 10:33N 58°42' W 004°16'1110.8
2014-Sep-15 09:33N 58°43' W 003°55'2512.7
2014-Sep-15 07:33N 58°43' W 003°07'44710.9
2014-Sep-13 14:32N 57°47' E 010°57'1111.4
2014-Sep-13 13:33N 57°39' E 011°11'1110.8
2014-Sep-13 12:33N 57°31' E 011°25'1110.8
2014-Sep-13 11:33N 57°21' E 011°33'2210.9
2014-Sep-13 09:33N 57°01' E 011°48'1110.8
2014-Sep-13 08:33N 56°51' E 011°57'1110.5
2014-Sep-13 07:32N 56°41' E 012°05'1210.6
2014-Sep-13 06:24N 56°30' E 012°13'910.7
2014-Sep-13 05:33N 56°22' E 012°20'1110.7
2014-Sep-13 04:33N 56°12' E 012°28'1212.0
2014-Sep-13 03:33N 56°02' E 012°40'1110.9
2014-Sep-13 02:33N 55°52' E 012°44'1111.1
2014-Sep-13 01:33N 55°41' E 012°41'1110.7
2014-Sep-13 00:33N 55°30' E 012°42'1010.5
2014-Sep-12 23:33N 55°20' E 012°41'1010.2
2014-Sep-12 22:33N 55°15' E 012°58'12 9.7
2014-Sep-12 21:18N 55°10' E 013°17'2010.9
2014-Sep-12 19:27N 55°01' E 013°49'1010.8
2014-Sep-12 18:31N 54°59' E 014°06'13810.6
2014-Sep-12 05:33N 54°55' E 018°05'1110.6
2014-Sep-12 04:33N 54°55' E 018°24'1111.0
2014-Sep-12 03:33N 54°49' E 018°40'1111.2
2014-Sep-12 02:33N 54°42' E 018°55'9 9.2
2014-Sep-12 01:33N 54°33' E 018°50'9 9.4
2014-Sep-12 00:33N 54°26' E 018°39'2 2.5
2014-Sep-11 23:33N 54°24' E 018°40'0 0.0
2014-Sep-11 22:33N 54°24' E 018°40'0 0.0
2014-Sep-11 21:33N 54°24' E 018°40'0 0.0
2014-Sep-11 20:33N 54°24' E 018°40'0 0.0
2014-Sep-11 19:31N 54°24' E 018°40'0 0.0
2014-Sep-11 18:33N 54°24' E 018°40'0 0.0
2014-Sep-11 17:33N 54°24' E 018°40'0 0.0
2014-Sep-11 16:33N 54°24' E 018°40'0 0.0
2014-Sep-11 15:33N 54°24' E 018°40'0 0.0
2014-Sep-11 14:33N 54°24' E 018°40'0 0.0
2014-Sep-11 13:33N 54°24' E 018°40'0 0.0
2014-Sep-11 12:33N 54°24' E 018°40'0 0.0
2014-Sep-11 11:33N 54°24' E 018°40'0 0.0
2014-Sep-11 10:33N 54°24' E 018°40'0 0.0
2014-Sep-11 09:33N 54°24' E 018°40'0 0.0
2014-Sep-11 08:33N 54°24' E 018°40'0 0.0
2014-Sep-11 07:33N 54°24' E 018°40'0 0.0
2014-Sep-11 06:33N 54°24' E 018°40'0 0.0
2014-Sep-11 05:33N 54°24' E 018°40'0 0.0
2014-Sep-11 04:33N 54°24' E 018°40'0 0.0
2014-Sep-11 03:33N 54°24' E 018°40'0 0.0
2014-Sep-11 02:33N 54°24' E 018°40'0 0.0
2014-Sep-11 01:33N 54°24' E 018°40'0 0.0
2014-Sep-11 00:33N 54°24' E 018°40'0 0.0
2014-Sep-10 23:33N 54°24' E 018°40'0 0.0
2014-Sep-10 22:33N 54°24' E 018°40'0 0.0
2014-Sep-10 21:33N 54°24' E 018°40'0 0.0
2014-Sep-10 20:33N 54°24' E 018°40'0 0.0
2014-Sep-10 19:33N 54°24' E 018°40'0 0.0
2014-Sep-10 18:33N 54°24' E 018°40'0 0.0
2014-Sep-10 17:33N 54°24' E 018°40'0 0.0
2014-Sep-10 16:33N 54°24' E 018°40'0 0.0
2014-Sep-10 15:33N 54°24' E 018°40'0 0.0
2014-Sep-10 14:33N 54°24' E 018°40'0 0.0
2014-Sep-10 13:33N 54°24' E 018°40'0 0.0
2014-Sep-10 12:33N 54°24' E 018°40'0 0.0
2014-Sep-10 11:33N 54°24' E 018°40'0 0.0
2014-Sep-10 10:33N 54°24' E 018°40'2 1.7
2014-Sep-10 09:33N 54°25' E 018°39'8 8.3
2014-Sep-10 08:33N 54°32' E 018°48'1010.5
2014-Sep-10 07:33N 54°42' E 018°54'1211.6
2014-Sep-10 06:33N 54°50' E 018°40'1211.6
2014-Sep-10 05:33N 54°56' E 018°23'1312.4
2014-Sep-10 04:33N 55°01' E 018°03'122 5.1
2014-Sep-09 04:33N 55°43' E 014°41'1111.4
2014-Sep-09 03:33N 55°31' E 014°42'1110.7
2014-Sep-09 02:33N 55°21' E 014°37'1111.3
2014-Sep-09 01:33N 55°12' E 014°25'1111.2
2014-Sep-09 00:33N 55°03' E 014°13'2311.4
2014-Sep-08 22:32N 54°55' E 013°36'4511.2
2014-Sep-08 18:33N 54°36' E 012°26'1010.4
2014-Sep-08 17:33N 54°27' E 012°15'1110.3
2014-Sep-08 16:31N 54°24' E 011°57'103 6.9
2014-Sep-08 01:27N 53°54' E 009°09'6 6.4
2014-Sep-08 00:33N 53°52' E 008°60'1010.5
2014-Sep-07 23:33N 53°53' E 008°42'9411.6
2014-Sep-07 15:28N 53°41' E 006°05'  
Track history (hours):
 
Tides and Currents Weather Stations Pressure Air Temp Water Temp Dewpoint Dewpoint Depression Visibility Wind Speed Wind Dir Waves Ship Positions

Maimiti

Last reported at 2014-Sep-17 14:33 UTC. Time now 2014-Sep-18 09:43 UTC.
Position N 53°58' W 005°54'.

Length 87 m; draft 4.5 m.

Type: Cargo ship. MMSI: 244312000.

Date/timePositionNaut miles runAvg speedWind from/ knotsBaromVisibWave heightAir tempDewpointWater temp
2014-Sep-17 14:33N 53°58' W 005°54'8 6.9
2014-Sep-17 13:23N 54°02' W 006°06'1 1.7
2014-Sep-17 12:33N 54°02' W 006°08'0 0.0
2014-Sep-17 11:33N 54°02' W 006°08'0 0.0
2014-Sep-17 10:33N 54°02' W 006°08'0 0.0
2014-Sep-17 09:33N 54°02' W 006°08'0 0.0
2014-Sep-17 08:33N 54°02' W 006°08'0 0.0
2014-Sep-17 07:33N 54°02' W 006°08'0 0.0
2014-Sep-17 06:33N 54°02' W 006°08'0 0.0
2014-Sep-17 05:32N 54°02' W 006°08'0 0.0
2014-Sep-17 04:31N 54°02' W 006°08'0 0.0
2014-Sep-17 03:33N 54°02' W 006°08'0 0.0
2014-Sep-17 02:33N 54°02' W 006°08'0 0.0
2014-Sep-17 01:33N 54°02' W 006°08'0 0.0
2014-Sep-17 00:33N 54°02' W 006°08'0 0.0
2014-Sep-16 23:33N 54°02' W 006°08'0 0.0
2014-Sep-16 22:32N 54°02' W 006°08'0 0.0
2014-Sep-16 21:33N 54°02' W 006°08'0 0.0
2014-Sep-16 20:33N 54°02' W 006°08'28 8.5
2014-Sep-16 17:19N 54°16' W 005°28'811.1
2014-Sep-16 16:33N 54°24' W 005°21'1111.3
2014-Sep-16 15:33N 54°35' W 005°23'1212.0
2014-Sep-16 14:33N 54°46' W 005°30'3712.2
2014-Sep-16 11:33N 55°18' W 006°03'1111.1
2014-Sep-16 10:33N 55°23' W 006°20'1110.6
2014-Sep-16 09:33N 55°31' W 006°33'10 9.8
2014-Sep-16 08:33N 55°39' W 006°42'10 9.3
2014-Sep-16 07:29N 55°48' W 006°52'150 9.9
2014-Sep-15 16:17N 58°13' W 005°44'54 9.4
2014-Sep-15 10:33N 58°42' W 004°16'1110.8
2014-Sep-15 09:33N 58°43' W 003°55'2512.7
2014-Sep-15 07:33N 58°43' W 003°07'44710.9
2014-Sep-13 14:32N 57°47' E 010°57'1111.4
2014-Sep-13 13:33N 57°39' E 011°11'1110.8
2014-Sep-13 12:33N 57°31' E 011°25'1110.8
2014-Sep-13 11:33N 57°21' E 011°33'2210.9
2014-Sep-13 09:33N 57°01' E 011°48'1110.8
2014-Sep-13 08:33N 56°51' E 011°57'1110.5
2014-Sep-13 07:32N 56°41' E 012°05'1210.6
2014-Sep-13 06:24N 56°30' E 012°13'910.7
2014-Sep-13 05:33N 56°22' E 012°20'1110.7
2014-Sep-13 04:33N 56°12' E 012°28'1212.0
2014-Sep-13 03:33N 56°02' E 012°40'1110.9
2014-Sep-13 02:33N 55°52' E 012°44'1111.1
2014-Sep-13 01:33N 55°41' E 012°41'1110.7
2014-Sep-13 00:33N 55°30' E 012°42'1010.5
2014-Sep-12 23:33N 55°20' E 012°41'1010.2
2014-Sep-12 22:33N 55°15' E 012°58'12 9.7
2014-Sep-12 21:18N 55°10' E 013°17'2010.9
2014-Sep-12 19:27N 55°01' E 013°49'1010.8
2014-Sep-12 18:31N 54°59' E 014°06'13810.6
2014-Sep-12 05:33N 54°55' E 018°05'1110.6
2014-Sep-12 04:33N 54°55' E 018°24'1111.0
2014-Sep-12 03:33N 54°49' E 018°40'1111.2
2014-Sep-12 02:33N 54°42' E 018°55'9 9.2
2014-Sep-12 01:33N 54°33' E 018°50'9 9.4
2014-Sep-12 00:33N 54°26' E 018°39'2 2.5
2014-Sep-11 23:33N 54°24' E 018°40'0 0.0
2014-Sep-11 22:33N 54°24' E 018°40'0 0.0
2014-Sep-11 21:33N 54°24' E 018°40'0 0.0
2014-Sep-11 20:33N 54°24' E 018°40'0 0.0
2014-Sep-11 19:31N 54°24' E 018°40'0 0.0
2014-Sep-11 18:33N 54°24' E 018°40'0 0.0
2014-Sep-11 17:33N 54°24' E 018°40'0 0.0
2014-Sep-11 16:33N 54°24' E 018°40'0 0.0
2014-Sep-11 15:33N 54°24' E 018°40'0 0.0
2014-Sep-11 14:33N 54°24' E 018°40'0 0.0
2014-Sep-11 13:33N 54°24' E 018°40'0 0.0
2014-Sep-11 12:33N 54°24' E 018°40'0 0.0
2014-Sep-11 11:33N 54°24' E 018°40'0 0.0
2014-Sep-11 10:33N 54°24' E 018°40'0 0.0
2014-Sep-11 09:33N 54°24' E 018°40'0 0.0
2014-Sep-11 08:33N 54°24' E 018°40'0 0.0
2014-Sep-11 07:33N 54°24' E 018°40'0 0.0
2014-Sep-11 06:33N 54°24' E 018°40'0 0.0
2014-Sep-11 05:33N 54°24' E 018°40'0 0.0
2014-Sep-11 04:33N 54°24' E 018°40'0 0.0
2014-Sep-11 03:33N 54°24' E 018°40'0 0.0
2014-Sep-11 02:33N 54°24' E 018°40'0 0.0
2014-Sep-11 01:33N 54°24' E 018°40'0 0.0
2014-Sep-11 00:33N 54°24' E 018°40'0 0.0
2014-Sep-10 23:33N 54°24' E 018°40'0 0.0
2014-Sep-10 22:33N 54°24' E 018°40'0 0.0
2014-Sep-10 21:33N 54°24' E 018°40'0 0.0
2014-Sep-10 20:33N 54°24' E 018°40'0 0.0
2014-Sep-10 19:33N 54°24' E 018°40'0 0.0
2014-Sep-10 18:33N 54°24' E 018°40'0 0.0
2014-Sep-10 17:33N 54°24' E 018°40'0 0.0
2014-Sep-10 16:33N 54°24' E 018°40'0 0.0
2014-Sep-10 15:33N 54°24' E 018°40'0 0.0
2014-Sep-10 14:33N 54°24' E 018°40'0 0.0
2014-Sep-10 13:33N 54°24' E 018°40'0 0.0
2014-Sep-10 12:33N 54°24' E 018°40'0 0.0
2014-Sep-10 11:33N 54°24' E 018°40'0 0.0
2014-Sep-10 10:33N 54°24' E 018°40'2 1.7
2014-Sep-10 09:33N 54°25' E 018°39'8 8.3
2014-Sep-10 08:33N 54°32' E 018°48'1010.5
2014-Sep-10 07:33N 54°42' E 018°54'1211.6
2014-Sep-10 06:33N 54°50' E 018°40'1211.6
2014-Sep-10 05:33N 54°56' E 018°23'1312.4
2014-Sep-10 04:33N 55°01' E 018°03'122 5.1
2014-Sep-09 04:33N 55°43' E 014°41'1111.4
2014-Sep-09 03:33N 55°31' E 014°42'1110.7
2014-Sep-09 02:33N 55°21' E 014°37'1111.3
2014-Sep-09 01:33N 55°12' E 014°25'1111.2
2014-Sep-09 00:33N 55°03' E 014°13'2311.4
2014-Sep-08 22:32N 54°55' E 013°36'4511.2
2014-Sep-08 18:33N 54°36' E 012°26'1010.4
2014-Sep-08 17:33N 54°27' E 012°15'1110.3
2014-Sep-08 16:31N 54°24' E 011°57'103 6.9
2014-Sep-08 01:27N 53°54' E 009°09'6 6.4
2014-Sep-08 00:33N 53°52' E 008°60'1010.5
2014-Sep-07 23:33N 53°53' E 008°42'9411.6
2014-Sep-07 15:28N 53°41' E 006°05'  

Dump ship's entire track history